sensor_id;sensor_type;location;lat;lon;timestamp;pressure;altitude;pressure_sealevel;temperature;humidity
10510;BME280;5303;53.266;10.410;2023-02-05T00:02:09;103686.78;;;2.12;100.00
10510;BME280;5303;53.266;10.410;2023-02-05T00:04:35;103681.97;;;2.22;100.00
10510;BME280;5303;53.266;10.410;2023-02-05T00:07:01;103677.22;;;2.30;100.00
10510;BME280;5303;53.266;10.410;2023-02-05T00:09:27;103670.97;;;2.29;100.00
10510;BME280;5303;53.266;10.410;2023-02-05T00:11:53;103657.84;;;2.47;100.00
10510;BME280;5303;53.266;10.410;2023-02-05T00:14:18;103656.47;;;2.33;100.00
10510;BME280;5303;53.266;10.410;2023-02-05T00:16:43;103650.13;;;2.36;100.00
10510;BME280;5303;53.266;10.410;2023-02-05T00:19:08;103643.19;;;2.29;100.00
10510;BME280;5303;53.266;10.410;2023-02-05T00:21:34;103645.25;;;2.21;100.00
10510;BME280;5303;53.266;10.410;2023-02-05T00:23:59;103630.31;;;2.12;100.00
10510;BME280;5303;53.266;10.410;2023-02-05T00:26:24;103624.66;;;2.20;100.00
10510;BME280;5303;53.266;10.410;2023-02-05T00:28:50;103623.63;;;2.24;100.00
10510;BME280;5303;53.266;10.410;2023-02-05T00:31:17;103622.28;;;2.10;100.00
10510;BME280;5303;53.266;10.410;2023-02-05T00:33:44;103620.72;;;2.03;100.00
10510;BME280;5303;53.266;10.410;2023-02-05T00:36:11;103604.03;;;2.20;100.00
10510;BME280;5303;53.266;10.410;2023-02-05T00:38:37;103614.78;;;2.20;100.00
10510;BME280;5303;53.266;10.410;2023-02-05T00:41:02;103605.41;;;2.05;100.00
10510;BME280;5303;53.266;10.410;2023-02-05T00:43:27;103609.78;;;2.09;100.00
10510;BME280;5303;53.266;10.410;2023-02-05T00:45:53;103596.25;;;2.11;100.00
10510;BME280;5303;53.266;10.410;2023-02-05T00:48:18;103592.91;;;2.04;100.00
10510;BME280;5303;53.266;10.410;2023-02-05T00:50:44;103595.44;;;2.09;100.00
10510;BME280;5303;53.266;10.410;2023-02-05T00:53:09;103590.16;;;2.06;100.00
10510;BME280;5303;53.266;10.410;2023-02-05T00:55:34;103584.94;;;2.01;100.00
10510;BME280;5303;53.266;10.410;2023-02-05T00:57:59;103582.72;;;2.14;100.00
10510;BME280;5303;53.266;10.410;2023-02-05T01:00:25;103572.22;;;2.06;100.00
10510;BME280;5303;53.266;10.410;2023-02-05T01:02:52;103577.50;;;2.09;100.00
10510;BME280;5303;53.266;10.410;2023-02-05T01:05:18;103576.66;;;2.07;100.00
10510;BME280;5303;53.266;10.410;2023-02-05T01:07:43;103576.63;;;2.09;100.00
10510;BME280;5303;53.266;10.410;2023-02-05T01:10:08;103579.50;;;2.03;100.00
10510;BME280;5303;53.266;10.410;2023-02-05T01:12:34;103580.91;;;2.15;100.00
10510;BME280;5303;53.266;10.410;2023-02-05T01:15:00;103580.91;;;2.15;100.00
10510;BME280;5303;53.266;10.410;2023-02-05T01:17:25;103571.97;;;2.14;100.00
10510;BME280;5303;53.266;10.410;2023-02-05T01:19:51;103569.44;;;2.09;100.00
10510;BME280;5303;53.266;10.410;2023-02-05T01:22:16;103555.72;;;1.91;100.00
10510;BME280;5303;53.266;10.410;2023-02-05T01:24:41;103557.72;;;1.84;100.00
10510;BME280;5303;53.266;10.410;2023-02-05T01:27:06;103557.72;;;1.84;100.00
10510;BME280;5303;53.266;10.410;2023-02-05T01:29:32;103558.53;;;1.86;100.00
10510;BME280;5303;53.266;10.410;2023-02-05T01:31:57;103558.59;;;1.84;100.00
10510;BME280;5303;53.266;10.410;2023-02-05T01:34:22;103559.09;;;1.97;100.00
10510;BME280;5303;53.266;10.410;2023-02-05T01:36:48;103553.75;;;1.96;100.00
10510;BME280;5303;53.266;10.410;2023-02-05T01:39:13;103556.19;;;1.75;100.00
10510;BME280;5303;53.266;10.410;2023-02-05T01:41:39;103544.22;;;1.85;100.00
10510;BME280;5303;53.266;10.410;2023-02-05T01:44:18;103532.84;;;1.77;100.00
10510;BME280;5303;53.266;10.410;2023-02-05T01:46:47;103522.13;;;1.77;100.00
10510;BME280;5303;53.266;10.410;2023-02-05T01:49:18;103528.47;;;1.75;100.00
10510;BME280;5303;53.266;10.410;2023-02-05T01:51:46;103529.22;;;1.78;100.00
10510;BME280;5303;53.266;10.410;2023-02-05T01:54:12;103524.78;;;1.77;100.00
10510;BME280;5303;53.266;10.410;2023-02-05T01:56:42;103523.84;;;1.78;100.00
10510;BME280;5303;53.266;10.410;2023-02-05T01:59:14;103519.41;;;1.77;100.00
10510;BME280;5303;53.266;10.410;2023-02-05T02:01:41;103516.44;;;1.86;100.00
10510;BME280;5303;53.266;10.410;2023-02-05T02:04:07;103511.84;;;1.90;100.00
10510;BME280;5303;53.266;10.410;2023-02-05T02:06:34;103514.25;;;1.71;100.00
10510;BME280;5303;53.266;10.410;2023-02-05T02:09:01;103514.09;;;1.76;100.00
10510;BME280;5303;53.266;10.410;2023-02-05T02:11:29;103517.88;;;1.70;100.00
10510;BME280;5303;53.266;10.410;2023-02-05T02:13:58;103508.00;;;1.71;100.00
10510;BME280;5303;53.266;10.410;2023-02-05T02:16:26;103503.41;;;1.74;100.00
10510;BME280;5303;53.266;10.410;2023-02-05T02:18:53;103505.25;;;1.72;100.00
10510;BME280;5303;53.266;10.410;2023-02-05T02:21:24;103494.84;;;1.61;100.00
10510;BME280;5303;53.266;10.410;2023-02-05T02:24:22;103498.06;;;1.73;100.00
10510;BME280;5303;53.266;10.410;2023-02-05T02:27:33;103498.13;;;1.98;100.00
10510;BME280;5303;53.266;10.410;2023-02-05T02:35:24;103480.19;;;1.72;100.00
10510;BME280;5303;53.266;10.410;2023-02-05T02:37:57;103488.19;;;1.73;100.00
10510;BME280;5303;53.266;10.410;2023-02-05T02:40:30;103485.19;;;1.82;100.00
10510;BME280;5303;53.266;10.410;2023-02-05T02:43:04;103486.78;;;1.61;100.00
10510;BME280;5303;53.266;10.410;2023-02-05T02:45:33;103486.44;;;1.72;100.00
10510;BME280;5303;53.266;10.410;2023-02-05T02:47:59;103499.06;;;1.70;100.00
10510;BME280;5303;53.266;10.410;2023-02-05T02:50:27;103500.84;;;1.70;100.00
10510;BME280;5303;53.266;10.410;2023-02-05T02:53:00;103495.56;;;1.67;100.00
10510;BME280;5303;53.266;10.410;2023-02-05T02:55:28;103499.34;;;1.61;100.00
10510;BME280;5303;53.266;10.410;2023-02-05T02:57:58;103495.56;;;1.67;100.00
10510;BME280;5303;53.266;10.410;2023-02-05T03:00:25;103478.19;;;1.78;100.00
10510;BME280;5303;53.266;10.410;2023-02-05T03:02:56;103471.19;;;1.73;100.00
10510;BME280;5303;53.266;10.410;2023-02-05T03:05:24;103468.19;;;1.82;100.00
10510;BME280;5303;53.266;10.410;2023-02-05T03:07:56;103462.13;;;1.77;100.00
10510;BME280;5303;53.266;10.410;2023-02-05T03:10:41;103465.47;;;1.83;100.00
10510;BME280;5303;53.266;10.410;2023-02-05T03:13:09;103470.84;;;1.83;100.00
10510;BME280;5303;53.266;10.410;2023-02-05T03:15:37;103480.34;;;1.94;100.00
10510;BME280;5303;53.266;10.410;2023-02-05T03:18:05;103479.28;;;1.99;100.00
10510;BME280;5303;53.266;10.410;2023-02-05T03:20:33;103470.72;;;1.60;100.00
10510;BME280;5303;53.266;10.410;2023-02-05T03:23:00;103471.94;;;1.78;100.00
10510;BME280;5303;53.266;10.410;2023-02-05T03:25:27;103466.06;;;1.92;100.00
10510;BME280;5303;53.266;10.410;2023-02-05T03:27:54;103485.13;;;2.12;100.00
10510;BME280;5303;53.266;10.410;2023-02-05T03:30:23;103482.31;;;2.15;100.00
10510;BME280;5303;53.266;10.410;2023-02-05T03:36:49;103489.78;;;2.05;100.00
10510;BME280;5303;53.266;10.410;2023-02-05T03:45:20;103476.97;;;2.14;100.00
10510;BME280;5303;53.266;10.410;2023-02-05T03:53:52;103478.03;;;2.09;100.00
10510;BME280;5303;53.266;10.410;2023-02-05T03:56:24;103465.69;;;2.29;100.00
10510;BME280;5303;53.266;10.410;2023-02-05T03:58:53;103455.59;;;2.36;100.00
10510;BME280;5303;53.266;10.410;2023-02-05T04:01:21;103450.00;;;2.42;100.00
10510;BME280;5303;53.266;10.410;2023-02-05T04:03:46;103453.13;;;2.29;100.00
10510;BME280;5303;53.266;10.410;2023-02-05T04:06:12;103450.09;;;2.14;100.00
10510;BME280;5303;53.266;10.410;2023-02-05T04:08:37;103435.94;;;2.33;100.00
10510;BME280;5303;53.266;10.410;2023-02-05T04:11:03;103425.81;;;2.40;100.00
10510;BME280;5303;53.266;10.410;2023-02-05T04:13:28;103431.41;;;2.34;100.00
10510;BME280;5303;53.266;10.410;2023-02-05T04:15:53;103439.44;;;2.36;100.00
10510;BME280;5303;53.266;10.410;2023-02-05T04:18:19;103440.41;;;2.35;100.00
10510;BME280;5303;53.266;10.410;2023-02-05T04:20:44;103437.09;;;2.26;100.00
10510;BME280;5303;53.266;10.410;2023-02-05T04:23:10;103419.00;;;2.31;100.00
10510;BME280;5303;53.266;10.410;2023-02-05T04:25:36;103411.69;;;2.35;100.00
10510;BME280;5303;53.266;10.410;2023-02-05T04:28:01;103396.84;;;2.48;100.00
10510;BME280;5303;53.266;10.410;2023-02-05T04:30:26;103406.34;;;2.33;100.00
10510;BME280;5303;53.266;10.410;2023-02-05T04:32:52;103408.38;;;2.27;100.00
10510;BME280;5303;53.266;10.410;2023-02-05T04:35:17;103402.84;;;2.31;100.00
10510;BME280;5303;53.266;10.410;2023-02-05T04:37:42;103395.53;;;2.35;100.00
10510;BME280;5303;53.266;10.410;2023-02-05T04:40:08;103397.59;;;2.28;100.00
10510;BME280;5303;53.266;10.410;2023-02-05T04:42:33;103389.84;;;2.19;100.00
10510;BME280;5303;53.266;10.410;2023-02-05T04:44:59;103384.47;;;2.19;100.00
10510;BME280;5303;53.266;10.410;2023-02-05T04:47:24;103387.81;;;2.01;100.00
10510;BME280;5303;53.266;10.410;2023-02-05T04:49:49;103383.28;;;2.03;100.00
10510;BME280;5303;53.266;10.410;2023-02-05T04:52:15;103383.84;;;1.86;100.00
10510;BME280;5303;53.266;10.410;2023-02-05T04:54:40;103389.72;;;1.97;100.00
10510;BME280;5303;53.266;10.410;2023-02-05T04:57:05;103385.84;;;2.06;100.00
10510;BME280;5303;53.266;10.410;2023-02-05T04:59:30;103390.59;;;1.98;100.00
10510;BME280;5303;53.266;10.410;2023-02-05T05:01:59;103387.38;;;2.13;100.00
10510;BME280;5303;53.266;10.410;2023-02-05T05:04:24;103389.72;;;1.97;100.00
10510;BME280;5303;53.266;10.410;2023-02-05T05:06:50;103392.34;;;1.99;100.00
10510;BME280;5303;53.266;10.410;2023-02-05T05:09:15;103396.97;;;1.95;100.00
10510;BME280;5303;53.266;10.410;2023-02-05T05:11:40;103389.56;;;2.02;100.00
10510;BME280;5303;53.266;10.410;2023-02-05T05:14:06;103376.22;;;1.99;100.00
10510;BME280;5303;53.266;10.410;2023-02-05T05:16:31;103370.38;;;2.13;100.00
10510;BME280;5303;53.266;10.410;2023-02-05T05:18:56;103365.22;;;2.06;100.00
10510;BME280;5303;53.266;10.410;2023-02-05T05:21:22;103361.91;;;1.98;100.00
10510;BME280;5303;53.266;10.410;2023-02-05T05:23:47;103368.34;;;1.94;100.00
10510;BME280;5303;53.266;10.410;2023-02-05T05:26:12;103367.94;;;2.05;100.00
10510;BME280;5303;53.266;10.410;2023-02-05T05:28:38;103368.88;;;2.04;100.00
10510;BME280;5303;53.266;10.410;2023-02-05T05:31:08;103365.94;;;1.86;100.00
10510;BME280;5303;53.266;10.410;2023-02-05T05:33:34;103364.25;;;1.82;100.00
10510;BME280;5303;53.266;10.410;2023-02-05T05:35:59;103364.16;;;1.85;100.00
10510;BME280;5303;53.266;10.410;2023-02-05T05:38:25;103353.75;;;2.01;100.00
10510;BME280;5303;53.266;10.410;2023-02-05T05:40:50;103358.78;;;1.85;100.00
10510;BME280;5303;53.266;10.410;2023-02-05T05:43:33;103346.19;;;2.13;100.00
10510;BME280;5303;53.266;10.410;2023-02-05T05:46:12;103332.84;;;2.09;100.00
10510;BME280;5303;53.266;10.410;2023-02-05T05:48:39;103328.75;;;2.23;100.00
10510;BME280;5303;53.266;10.410;2023-02-05T05:51:05;103321.97;;;2.36;100.00
10510;BME280;5303;53.266;10.410;2023-02-05T05:53:31;103321.38;;;2.28;100.00
10510;BME280;5303;53.266;10.410;2023-02-05T05:55:56;103318.84;;;2.25;100.00
10510;BME280;5303;53.266;10.410;2023-02-05T05:58:22;103312.09;;;2.37;100.00
10510;BME280;5303;53.266;10.410;2023-02-05T06:00:48;103315.84;;;2.32;100.00
10510;BME280;5303;53.266;10.410;2023-02-05T06:03:13;103319.28;;;2.36;100.00
10510;BME280;5303;53.266;10.410;2023-02-05T06:05:39;103315.78;;;2.34;100.00
10510;BME280;5303;53.266;10.410;2023-02-05T06:08:04;103321.34;;;2.29;100.00
10510;BME280;5303;53.266;10.410;2023-02-05T06:10:30;103322.56;;;2.21;100.00
10510;BME280;5303;53.266;10.410;2023-02-05T06:12:57;103318.88;;;2.47;100.00
10510;BME280;5303;53.266;10.410;2023-02-05T06:15:22;103311.19;;;2.38;100.00
10510;BME280;5303;53.266;10.410;2023-02-05T06:17:47;103303.38;;;2.53;100.00
10510;BME280;5303;53.266;10.410;2023-02-05T06:20:13;103303.84;;;2.65;100.00
10510;BME280;5303;53.266;10.410;2023-02-05T06:22:39;103302.91;;;2.42;100.00
10510;BME280;5303;53.266;10.410;2023-02-05T06:25:05;103300.63;;;2.55;100.00
10510;BME280;5303;53.266;10.410;2023-02-05T06:27:31;103291.84;;;2.73;100.00
10510;BME280;5303;53.266;10.410;2023-02-05T06:29:56;103295.28;;;2.77;100.00
10510;BME280;5303;53.266;10.410;2023-02-05T06:32:21;103297.81;;;2.58;100.00
10510;BME280;5303;53.266;10.410;2023-02-05T06:34:47;103285.84;;;2.43;100.00
10510;BME280;5303;53.266;10.410;2023-02-05T06:37:12;103280.81;;;2.34;100.00
10510;BME280;5303;53.266;10.410;2023-02-05T06:39:38;103282.91;;;2.49;100.00
10510;BME280;5303;53.266;10.410;2023-02-05T06:42:03;103281.91;;;2.52;100.00
10510;BME280;5303;53.266;10.410;2023-02-05T06:44:29;103286.88;;;2.63;100.00
10510;BME280;5303;53.266;10.410;2023-02-05T06:46:54;103284.81;;;2.47;100.00
10510;BME280;5303;53.266;10.410;2023-02-05T06:49:19;103277.50;;;2.73;100.00
10510;BME280;5303;53.266;10.410;2023-02-05T06:51:45;103281.47;;;2.63;100.00
10510;BME280;5303;53.266;10.410;2023-02-05T06:54:10;103274.84;;;2.71;100.00
10510;BME280;5303;53.266;10.410;2023-02-05T06:56:35;103274.84;;;2.71;100.00
10510;BME280;5303;53.266;10.410;2023-02-05T06:59:01;103267.03;;;2.65;100.00
10510;BME280;5303;53.266;10.410;2023-02-05T07:01:26;103268.03;;;2.85;100.00
10510;BME280;5303;53.266;10.410;2023-02-05T07:03:51;103263.34;;;2.68;100.00
10510;BME280;5303;53.266;10.410;2023-02-05T07:06:20;103268.59;;;2.71;100.00
10510;BME280;5303;53.266;10.410;2023-02-05T07:08:48;103274.66;;;2.76;100.00
10510;BME280;5303;53.266;10.410;2023-02-05T07:11:13;103279.88;;;2.80;100.00
10510;BME280;5303;53.266;10.410;2023-02-05T07:13:39;103284.19;;;2.85;100.00
10510;BME280;5303;53.266;10.410;2023-02-05T07:16:05;103288.78;;;2.83;100.00
10510;BME280;5303;53.266;10.410;2023-02-05T07:18:31;103286.13;;;2.81;100.00
10510;BME280;5303;53.266;10.410;2023-02-05T07:20:57;103292.00;;;2.91;100.00
10510;BME280;5303;53.266;10.410;2023-02-05T07:23:22;103297.47;;;2.89;100.00
10510;BME280;5303;53.266;10.410;2023-02-05T07:25:47;103301.72;;;2.73;100.00
10510;BME280;5303;53.266;10.410;2023-02-05T07:28:12;103301.56;;;2.76;100.00
10510;BME280;5303;53.266;10.410;2023-02-05T07:30:38;103305.34;;;2.94;100.00
10510;BME280;5303;53.266;10.410;2023-02-05T07:33:03;103300.72;;;2.97;100.00
10510;BME280;5303;53.266;10.410;2023-02-05T07:35:29;103301.22;;;2.85;100.00
10510;BME280;5303;53.266;10.410;2023-02-05T07:37:55;103294.59;;;2.94;100.00
10510;BME280;5303;53.266;10.410;2023-02-05T07:40:20;103288.13;;;2.76;100.00
10510;BME280;5303;53.266;10.410;2023-02-05T07:42:45;103284.25;;;2.61;100.00
10510;BME280;5303;53.266;10.410;2023-02-05T07:45:11;103290.56;;;2.60;100.00
10510;BME280;5303;53.266;10.410;2023-02-05T07:47:36;103291.72;;;2.76;100.00
10510;BME280;5303;53.266;10.410;2023-02-05T07:50:01;103292.13;;;2.88;100.00
10510;BME280;5303;53.266;10.410;2023-02-05T07:52:28;103286.75;;;2.88;100.00
10510;BME280;5303;53.266;10.410;2023-02-05T07:54:54;103293.56;;;2.74;100.00
10510;BME280;5303;53.266;10.410;2023-02-05T07:57:19;103285.75;;;2.90;100.00
10510;BME280;5303;53.266;10.410;2023-02-05T07:59:44;103287.50;;;3.13;100.00
10510;BME280;5303;53.266;10.410;2023-02-05T08:02:10;103285.69;;;2.92;100.00
10510;BME280;5303;53.266;10.410;2023-02-05T08:04:35;103277.59;;;3.14;100.00
10510;BME280;5303;53.266;10.410;2023-02-05T08:07:01;103284.53;;;3.19;100.00
10510;BME280;5303;53.266;10.410;2023-02-05T08:09:26;103291.28;;;3.30;100.00
10510;BME280;5303;53.266;10.410;2023-02-05T08:11:51;103292.72;;;3.18;100.00
10510;BME280;5303;53.266;10.410;2023-02-05T08:14:17;103289.53;;;3.29;100.00
10510;BME280;5303;53.266;10.410;2023-02-05T08:16:42;103290.97;;;3.37;100.00
10510;BME280;5303;53.266;10.410;2023-02-05T08:19:14;103304.75;;;3.30;100.00
10510;BME280;5303;53.266;10.410;2023-02-05T08:21:41;103308.16;;;3.13;100.00
10510;BME280;5303;53.266;10.410;2023-02-05T08:24:06;103299.97;;;3.36;100.00
10510;BME280;5303;53.266;10.410;2023-02-05T08:26:31;103298.38;;;3.32;100.00
10510;BME280;5303;53.266;10.410;2023-02-05T08:28:56;103311.97;;;3.29;100.00
10510;BME280;5303;53.266;10.410;2023-02-05T08:31:22;103303.19;;;3.24;100.00
10510;BME280;5303;53.266;10.410;2023-02-05T08:33:48;103300.94;;;3.35;100.00
10510;BME280;5303;53.266;10.410;2023-02-05T08:36:15;103294.75;;;3.54;100.00
10510;BME280;5303;53.266;10.410;2023-02-05T08:38:40;103278.25;;;3.61;100.00
10510;BME280;5303;53.266;10.410;2023-02-05T08:41:07;103286.19;;;3.64;100.00
10510;BME280;5303;53.266;10.410;2023-02-05T08:43:37;103281.63;;;3.66;100.00
10510;BME280;5303;53.266;10.410;2023-02-05T08:46:03;103290.97;;;3.58;100.00
10510;BME280;5303;53.266;10.410;2023-02-05T08:48:29;103293.88;;;3.73;100.00
10510;BME280;5303;53.266;10.410;2023-02-05T08:50:54;103296.09;;;3.84;100.00
10510;BME280;5303;53.266;10.410;2023-02-05T08:53:19;103313.69;;;3.93;100.00
10510;BME280;5303;53.266;10.410;2023-02-05T08:55:53;103303.41;;;4.01;100.00
10510;BME280;5303;53.266;10.410;2023-02-05T08:58:18;103297.38;;;3.96;100.00
10510;BME280;5303;53.266;10.410;2023-02-05T09:00:44;103290.88;;;4.00;100.00
10510;BME280;5303;53.266;10.410;2023-02-05T09:03:09;103286.63;;;4.15;100.00
10510;BME280;5303;53.266;10.410;2023-02-05T09:05:37;103290.47;;;4.09;100.00
10510;BME280;5303;53.266;10.410;2023-02-05T09:08:02;103290.91;;;4.19;100.00
10510;BME280;5303;53.266;10.410;2023-02-05T09:10:28;103285.38;;;4.22;100.00
10510;BME280;5303;53.266;10.410;2023-02-05T09:12:53;103300.72;;;4.01;100.00
10510;BME280;5303;53.266;10.410;2023-02-05T09:15:19;103301.47;;;4.24;100.00
10510;BME280;5303;53.266;10.410;2023-02-05T09:17:44;103300.00;;;4.16;100.00
10510;BME280;5303;53.266;10.410;2023-02-05T09:20:10;103294.47;;;4.19;100.00
10510;BME280;5303;53.266;10.410;2023-02-05T09:22:36;103302.75;;;4.35;100.00
10510;BME280;5303;53.266;10.410;2023-02-05T09:25:01;103292.91;;;4.34;100.00
10510;BME280;5303;53.266;10.410;2023-02-05T09:27:26;103299.03;;;4.38;100.00
10510;BME280;5303;53.266;10.410;2023-02-05T09:29:52;103299.69;;;4.43;100.00
10510;BME280;5303;53.266;10.410;2023-02-05T09:32:17;103307.84;;;4.41;100.00
10510;BME280;5303;53.266;10.410;2023-02-05T09:34:43;103307.41;;;4.51;100.00
10510;BME280;5303;53.266;10.410;2023-02-05T09:37:08;103310.75;;;4.56;100.00
10510;BME280;5303;53.266;10.410;2023-02-05T09:39:33;103317.19;;;4.53;100.00
10510;BME280;5303;53.266;10.410;2023-02-05T09:47:19;103312.59;;;4.74;100.00
10510;BME280;5303;53.266;10.410;2023-02-05T09:50:04;103296.97;;;4.81;100.00
10510;BME280;5303;53.266;10.410;2023-02-05T09:52:36;103306.31;;;4.55;100.00
10510;BME280;5303;53.266;10.410;2023-02-05T09:55:11;103310.25;;;4.48;100.00
10510;BME280;5303;53.266;10.410;2023-02-05T09:57:40;103313.09;;;4.63;100.00
10510;BME280;5303;53.266;10.410;2023-02-05T10:00:26;103317.06;;;4.75;100.00
10510;BME280;5303;53.266;10.410;2023-02-05T10:03:03;103309.69;;;4.79;100.00
10510;BME280;5303;53.266;10.410;2023-02-05T10:05:35;103303.75;;;4.89;100.00
10510;BME280;5303;53.266;10.410;2023-02-05T10:08:18;103302.28;;;5.01;100.00
10510;BME280;5303;53.266;10.410;2023-02-05T10:10:52;103301.38;;;5.01;100.00
10510;BME280;5303;53.266;10.410;2023-02-05T10:27:06;103316.59;;;4.84;100.00
10510;BME280;5303;53.266;10.410;2023-02-05T10:30:03;103304.13;;;5.18;100.00
10510;BME280;5303;53.266;10.410;2023-02-05T10:40:00;103309.63;;;5.34;100.00
10510;BME280;5303;53.266;10.410;2023-02-05T10:45:14;103297.22;;;5.47;100.00
10510;BME280;5303;53.266;10.410;2023-02-05T10:47:55;103302.50;;;5.33;100.00
10510;BME280;5303;53.266;10.410;2023-02-05T10:50:44;103301.72;;;5.12;100.00
10510;BME280;5303;53.266;10.410;2023-02-05T10:53:13;103308.25;;;5.25;100.00
10510;BME280;5303;53.266;10.410;2023-02-05T10:55:41;103314.00;;;5.36;100.00
10510;BME280;5303;53.266;10.410;2023-02-05T11:01:05;103315.59;;;5.41;100.00
10510;BME280;5303;53.266;10.410;2023-02-05T11:03:32;103325.38;;;5.43;100.00
10510;BME280;5303;53.266;10.410;2023-02-05T11:05:58;103320.03;;;5.42;100.00
10510;BME280;5303;53.266;10.410;2023-02-05T11:08:36;103326.97;;;5.47;100.00
10510;BME280;5303;53.266;10.410;2023-02-05T11:11:03;103346.59;;;5.51;100.00
10510;BME280;5303;53.266;10.410;2023-02-05T11:13:30;103346.28;;;5.40;100.00
10510;BME280;5303;53.266;10.410;2023-02-05T11:16:02;103349.56;;;5.64;100.00
10510;BME280;5303;53.266;10.410;2023-02-05T11:18:41;103343.25;;;5.80;100.00
10510;BME280;5303;53.266;10.410;2023-02-05T11:21:09;103344.38;;;5.76;100.00
10510;BME280;5303;53.266;10.410;2023-02-05T11:23:35;103350.91;;;5.55;100.00
10510;BME280;5303;53.266;10.410;2023-02-05T11:26:21;103343.09;;;5.83;100.00
10510;BME280;5303;53.266;10.410;2023-02-05T11:28:47;103342.25;;;5.83;100.00
10510;BME280;5303;53.266;10.410;2023-02-05T11:33:50;103350.53;;;5.63;100.00
10510;BME280;5303;53.266;10.410;2023-02-05T11:36:20;103353.16;;;5.81;100.00
10510;BME280;5303;53.266;10.410;2023-02-05T11:38:50;103350.44;;;5.99;100.00
10510;BME280;5303;53.266;10.410;2023-02-05T11:41:33;103356.41;;;6.05;100.00
10510;BME280;5303;53.266;10.410;2023-02-05T11:44:26;103352.41;;;6.13;100.00
10510;BME280;5303;53.266;10.410;2023-02-05T11:46:53;103349.31;;;6.03;100.00
10510;BME280;5303;53.266;10.410;2023-02-05T11:49:34;103358.72;;;6.13;100.00
10510;BME280;5303;53.266;10.410;2023-02-05T11:52:10;103361.03;;;6.03;100.00
10510;BME280;5303;53.266;10.410;2023-02-05T11:54:36;103358.72;;;6.13;100.00
10510;BME280;5303;53.266;10.410;2023-02-05T12:00:19;103357.00;;;6.28;100.00
10510;BME280;5303;53.266;10.410;2023-02-05T12:02:45;103365.44;;;6.39;100.00
10510;BME280;5303;53.266;10.410;2023-02-05T12:05:23;103364.31;;;6.26;100.00
10510;BME280;5303;53.266;10.410;2023-02-05T12:08:16;103360.34;;;6.33;100.00
10510;BME280;5303;53.266;10.410;2023-02-05T12:16:15;103364.09;;;6.30;100.00
10510;BME280;5303;53.266;10.410;2023-02-05T12:19:11;103351.59;;;6.28;100.00
10510;BME280;5303;53.266;10.410;2023-02-05T12:30:29;103326.44;;;6.26;100.00
10510;BME280;5303;53.266;10.410;2023-02-05T12:43:38;103313.09;;;6.23;100.00
10510;BME280;5303;53.266;10.410;2023-02-05T12:57:52;103311.25;;;6.23;100.00
10510;BME280;5303;53.266;10.410;2023-02-05T13:00:23;103319.28;;;6.25;100.00
10510;BME280;5303;53.266;10.410;2023-02-05T13:05:45;103321.22;;;6.39;100.00
10510;BME280;5303;53.266;10.410;2023-02-05T13:11:23;103326.66;;;6.54;100.00
10510;BME280;5303;53.266;10.410;2023-02-05T13:13:55;103318.84;;;6.66;100.00
10510;BME280;5303;53.266;10.410;2023-02-05T13:16:31;103315.16;;;6.67;100.00
10510;BME280;5303;53.266;10.410;2023-02-05T13:19:02;103317.84;;;6.67;100.00
10510;BME280;5303;53.266;10.410;2023-02-05T13:21:28;103329.50;;;6.69;100.00
10510;BME280;5303;53.266;10.410;2023-02-05T13:27:04;103305.19;;;6.67;100.00
10510;BME280;5303;53.266;10.410;2023-02-05T13:29:57;103318.53;;;6.54;100.00
10510;BME280;5303;53.266;10.410;2023-02-05T13:32:23;103321.31;;;6.37;98.27
10510;BME280;5303;53.266;10.410;2023-02-05T13:34:55;103321.75;;;6.29;100.00
10510;BME280;5303;53.266;10.410;2023-02-05T13:46:06;103345.06;;;6.32;100.00
10510;BME280;5303;53.266;10.410;2023-02-05T14:00:12;103359.50;;;6.48;100.00
10510;BME280;5303;53.266;10.410;2023-02-05T14:02:41;103357.59;;;6.50;100.00
10510;BME280;5303;53.266;10.410;2023-02-05T14:05:07;103343.81;;;6.55;100.00
10510;BME280;5303;53.266;10.410;2023-02-05T14:07:37;103345.97;;;6.64;100.00
10510;BME280;5303;53.266;10.410;2023-02-05T14:10:23;103363.13;;;6.32;100.00
10510;BME280;5303;53.266;10.410;2023-02-05T14:12:50;103369.63;;;6.12;100.00
10510;BME280;5303;53.266;10.410;2023-02-05T14:20:34;103384.41;;;6.22;100.00
10510;BME280;5303;53.266;10.410;2023-02-05T14:23:02;103387.09;;;6.39;100.00
10510;BME280;5303;53.266;10.410;2023-02-05T14:28:03;103391.44;;;6.42;100.00
10510;BME280;5303;53.266;10.410;2023-02-05T14:35:29;103387.31;;;6.35;100.00
10510;BME280;5303;53.266;10.410;2023-02-05T14:38:00;103381.75;;;6.38;100.00
10510;BME280;5303;53.266;10.410;2023-02-05T14:40:31;103366.47;;;6.37;100.00
10510;BME280;5303;53.266;10.410;2023-02-05T14:43:11;103372.81;;;6.20;100.00
10510;BME280;5303;53.266;10.410;2023-02-05T14:45:43;103380.38;;;5.96;100.00
10510;BME280;5303;53.266;10.410;2023-02-05T14:48:24;103391.94;;;5.80;100.00
10510;BME280;5303;53.266;10.410;2023-02-05T14:51:30;103389.66;;;5.73;100.00
10510;BME280;5303;53.266;10.410;2023-02-05T14:53:59;103388.38;;;5.80;100.00
10510;BME280;5303;53.266;10.410;2023-02-05T14:56:34;103391.44;;;6.09;100.00
10510;BME280;5303;53.266;10.410;2023-02-05T14:59:05;103409.81;;;6.02;100.00
10510;BME280;5303;53.266;10.410;2023-02-05T15:03:59;103441.50;;;5.64;100.00
10510;BME280;5303;53.266;10.410;2023-02-05T15:06:30;103440.78;;;5.77;100.00
10510;BME280;5303;53.266;10.410;2023-02-05T15:09:27;103450.44;;;5.83;100.00
10510;BME280;5303;53.266;10.410;2023-02-05T15:12:14;103448.81;;;5.98;100.00
10510;BME280;5303;53.266;10.410;2023-02-05T15:14:56;103446.66;;;6.04;100.00
10510;BME280;5303;53.266;10.410;2023-02-05T15:19:56;103460.09;;;6.06;100.00
10510;BME280;5303;53.266;10.410;2023-02-05T15:22:30;103444.06;;;5.84;100.00